createdAt,value
2019-04-06T00:00:48.921Z,8.76
2019-04-06T00:01:48.885Z,8.80
2019-04-06T00:02:48.836Z,8.86
2019-04-06T00:03:48.820Z,8.79
2019-04-06T00:04:48.775Z,8.81
2019-04-06T00:05:48.728Z,8.80
2019-04-06T00:06:48.664Z,8.84
2019-04-06T00:07:48.623Z,8.83
2019-04-06T00:08:48.574Z,8.86
2019-04-06T00:09:48.561Z,8.87
2019-04-06T00:10:48.488Z,8.95
2019-04-06T00:11:48.444Z,8.86
2019-04-06T00:12:48.402Z,8.86
2019-04-06T00:13:48.359Z,8.89
2019-04-06T00:14:48.318Z,8.83
2019-04-06T00:15:48.309Z,8.89
2019-04-06T00:16:48.240Z,8.91
2019-04-06T00:17:48.193Z,8.80
2019-04-06T00:18:48.154Z,8.92
2019-04-06T00:19:48.177Z,8.89
2019-04-06T00:20:48.085Z,8.94
2019-04-06T00:21:48.019Z,8.92
2019-04-06T00:22:47.985Z,8.94
2019-04-06T00:23:47.948Z,8.91
2019-04-06T00:24:47.899Z,8.94
2019-04-06T00:25:47.960Z,8.87
2019-04-06T00:26:47.812Z,8.96
2019-04-06T00:27:47.775Z,8.91
2019-04-06T00:28:47.721Z,8.89
2019-04-06T00:29:47.711Z,8.92
2019-04-06T00:30:47.640Z,8.95
2019-04-06T00:31:47.596Z,8.86
2019-04-06T00:32:47.558Z,8.95
2019-04-06T00:33:47.512Z,8.98
2019-04-06T00:34:47.494Z,8.92
2019-04-06T00:35:47.436Z,8.95
2019-04-06T00:36:47.468Z,8.95
2019-04-06T00:37:47.353Z,9.01
2019-04-06T00:38:47.300Z,9.01
2019-04-06T00:39:47.278Z,8.95
2019-04-06T00:40:47.209Z,8.95
2019-04-06T00:41:47.165Z,9.01
2019-04-06T00:42:47.151Z,9.01
2019-04-06T00:43:47.120Z,9.01
2019-04-06T00:44:47.050Z,8.98
2019-04-06T00:45:47.009Z,9.02
2019-04-06T00:46:46.989Z,9.02
2019-04-06T00:47:46.919Z,9.01
2019-04-06T00:48:46.891Z,8.99
2019-04-06T00:49:46.851Z,8.98
2019-04-06T00:50:46.783Z,9.02
2019-04-06T00:51:46.743Z,8.94
2019-04-06T00:52:46.707Z,8.95
2019-04-06T00:53:46.710Z,9.02
2019-04-06T00:54:46.612Z,8.95
2019-04-06T00:55:55.025Z,8.96
2019-04-06T00:56:46.537Z,8.98
2019-04-06T00:57:46.493Z,9.02
2019-04-06T00:58:46.452Z,8.99
2019-04-06T00:59:46.430Z,9.01
2019-04-06T01:00:46.361Z,8.98
2019-04-06T01:01:46.324Z,8.99
2019-04-06T01:02:46.281Z,9.02
2019-04-06T01:03:46.262Z,8.99
2019-04-06T01:04:46.218Z,9.01
2019-04-06T01:05:46.158Z,9.01
2019-04-06T01:06:46.113Z,8.96
2019-04-06T01:07:46.063Z,9.02
2019-04-06T01:08:46.045Z,8.98
2019-04-06T01:09:45.982Z,8.95
2019-04-06T01:10:45.938Z,8.99
2019-04-06T01:11:45.897Z,9.01
2019-04-06T01:12:45.849Z,9.02
2019-04-06T01:13:45.835Z,8.98
2019-04-06T01:14:45.801Z,9.01
2019-04-06T01:15:45.723Z,8.95
2019-04-06T01:16:45.685Z,8.98
2019-04-06T01:17:45.643Z,9.05
2019-04-06T01:18:45.599Z,8.98
2019-04-06T01:19:45.585Z,8.95
2019-04-06T01:20:45.536Z,8.96
2019-04-06T01:21:45.469Z,8.95
2019-04-06T01:22:45.425Z,9.01
2019-04-06T01:23:45.383Z,8.95
2019-04-06T01:24:45.349Z,8.96
2019-04-06T01:25:45.301Z,8.94
2019-04-06T01:26:45.279Z,9.02
2019-04-06T01:27:45.218Z,8.99
2019-04-06T01:28:45.202Z,8.91
2019-04-06T01:29:45.151Z,9.04
2019-04-06T01:30:45.096Z,8.89
2019-04-06T01:31:45.051Z,8.95
2019-04-06T01:32:45.056Z,8.95
2019-04-06T01:33:44.958Z,9.01
2019-04-06T01:34:44.919Z,8.91
2019-04-06T01:35:44.874Z,8.96
2019-04-06T01:36:44.836Z,8.94
2019-04-06T01:37:44.809Z,8.99
2019-04-06T01:38:44.776Z,8.95
2019-04-06T01:39:44.740Z,9.01
2019-04-06T01:40:44.661Z,8.99
2019-04-06T01:41:44.614Z,8.99
2019-04-06T01:42:44.587Z,8.95
2019-04-06T01:43:44.543Z,8.91
2019-04-06T01:44:44.516Z,8.89
2019-04-06T01:45:44.460Z,8.91
2019-04-06T01:46:44.408Z,8.89
2019-04-06T01:47:44.405Z,8.92
2019-04-06T01:48:44.329Z,8.89
2019-04-06T01:49:44.286Z,8.87
2019-04-06T01:50:44.248Z,8.81
2019-04-06T01:51:44.200Z,8.87
2019-04-06T01:52:44.180Z,8.91
2019-04-06T01:53:44.112Z,8.86
2019-04-06T01:54:44.098Z,8.87
2019-04-06T01:55:44.032Z,8.92
2019-04-06T01:56:43.988Z,8.89
2019-04-06T01:57:43.952Z,8.89
2019-04-06T01:58:43.904Z,8.92
2019-04-06T01:59:43.979Z,8.89
2019-04-06T02:00:43.837Z,8.92
2019-04-06T02:01:43.775Z,8.92
2019-04-06T02:02:43.791Z,8.89
2019-04-06T02:03:43.700Z,8.98
2019-04-06T02:04:43.645Z,8.86
2019-04-06T02:05:43.624Z,8.87
2019-04-06T02:06:43.567Z,8.94
2019-04-06T02:07:43.537Z,8.95
2019-04-06T02:08:43.554Z,9.02
2019-04-06T02:09:43.428Z,8.95
2019-04-06T02:10:43.395Z,8.94
2019-04-06T02:11:43.343Z,8.89
2019-04-06T02:12:43.453Z,8.91
2019-04-06T02:13:43.261Z,8.95
2019-04-06T02:14:43.221Z,8.89
2019-04-06T02:15:43.175Z,8.89
2019-04-06T02:16:43.222Z,8.96
2019-04-06T02:17:43.085Z,8.96
2019-04-06T02:18:43.118Z,9.01
2019-04-06T02:19:43.000Z,8.87
2019-04-06T02:20:42.961Z,8.91
2019-04-06T02:21:42.928Z,8.96
2019-04-06T02:22:42.910Z,8.91
2019-04-06T02:23:42.834Z,8.89
2019-04-06T02:24:42.788Z,8.91
2019-04-06T02:25:42.754Z,8.86
2019-04-06T02:26:42.709Z,8.94
2019-04-06T02:27:42.766Z,8.91
2019-04-06T02:28:42.649Z,8.91
2019-04-06T02:29:42.586Z,8.95
2019-04-06T02:30:42.535Z,8.91
2019-04-06T02:31:42.491Z,8.86
2019-04-06T02:32:42.457Z,8.96
2019-04-06T02:33:42.411Z,8.89
2019-04-06T02:34:42.395Z,8.86
2019-04-06T02:35:42.337Z,8.94
2019-04-06T02:36:42.287Z,8.98
2019-04-06T02:37:42.233Z,8.89
2019-04-06T02:38:42.197Z,8.95
2019-04-06T02:39:42.148Z,8.89
2019-04-06T02:40:42.259Z,8.91
2019-04-06T02:41:42.084Z,8.92
2019-04-06T02:42:42.029Z,8.79
2019-04-06T02:43:41.986Z,8.87
2019-04-06T02:44:41.936Z,8.83
2019-04-06T02:45:41.946Z,8.83
2019-04-06T02:46:41.857Z,8.80
2019-04-06T02:47:41.816Z,8.76
2019-04-06T02:48:41.766Z,8.86
2019-04-06T02:49:41.725Z,8.74
2019-04-06T02:50:41.711Z,8.73
2019-04-06T02:51:41.641Z,8.74
2019-04-06T02:52:41.605Z,8.74
2019-04-06T02:53:41.563Z,8.70
2019-04-06T02:54:41.523Z,8.71
2019-04-06T02:55:41.567Z,8.80
2019-04-06T02:56:46.661Z,8.74
2019-04-06T02:57:41.397Z,8.71
2019-04-06T02:58:41.560Z,8.71
2019-04-06T02:59:41.300Z,8.79
2019-04-06T03:00:41.288Z,8.70
2019-04-06T03:01:41.221Z,8.71
2019-04-06T03:02:41.175Z,8.83
2019-04-06T03:03:41.131Z,8.83
2019-04-06T03:04:41.092Z,8.86
2019-04-06T03:05:41.075Z,8.91
2019-04-06T03:06:41.154Z,8.92
2019-04-06T03:07:40.963Z,8.94
2019-04-06T03:08:40.961Z,8.92
2019-04-06T03:09:40.902Z,8.94
2019-04-06T03:10:41.042Z,8.98
2019-04-06T03:11:40.847Z,8.96
2019-04-06T03:12:40.754Z,8.95
2019-04-06T03:13:40.715Z,9.01
2019-04-06T03:14:44.009Z,8.94
2019-04-06T03:15:40.628Z,9.01
2019-04-06T03:16:40.647Z,8.98
2019-04-06T03:17:40.536Z,8.98
2019-04-06T03:18:40.506Z,8.95
2019-04-06T03:19:40.459Z,9.02
2019-04-06T03:20:40.411Z,8.96
2019-04-06T03:21:40.364Z,8.96
2019-04-06T03:22:40.346Z,9.05
2019-04-06T03:23:50.753Z,8.95
2019-04-06T03:24:40.278Z,8.92
2019-04-06T03:25:40.201Z,9.04
2019-04-06T03:26:40.169Z,8.95
2019-04-06T03:27:40.131Z,8.96
2019-04-06T03:28:40.067Z,9.01
2019-04-06T03:29:40.052Z,8.96
2019-04-06T03:30:40.095Z,8.96
2019-04-06T03:31:40.204Z,9.02
2019-04-06T03:32:40.225Z,9.04
2019-04-06T03:33:40.015Z,9.11
2019-04-06T03:34:39.838Z,9.08
2019-04-06T03:35:45.903Z,9.13
2019-04-06T03:36:39.754Z,9.01
2019-04-06T03:37:39.689Z,8.98
2019-04-06T03:38:39.673Z,9.11
2019-04-06T03:39:39.608Z,9.05
2019-04-06T03:40:39.687Z,9.13
2019-04-06T03:41:39.513Z,9.05
2019-04-06T03:42:39.484Z,9.11
2019-04-06T03:43:39.427Z,9.04
2019-04-06T03:44:39.398Z,9.11
2019-04-06T03:45:39.357Z,9.11
2019-04-06T03:46:39.369Z,9.13
2019-04-06T03:47:39.529Z,9.08
2019-04-06T03:48:39.230Z,9.05
2019-04-06T03:49:39.179Z,9.11
2019-04-06T03:50:39.126Z,9.14
2019-04-06T03:51:39.101Z,9.11
2019-04-06T03:52:39.037Z,9.02
2019-04-06T03:53:39.042Z,9.05
2019-04-06T03:54:38.950Z,9.15
2019-04-06T03:55:38.950Z,9.11
2019-04-06T03:56:38.870Z,9.11
2019-04-06T03:57:38.849Z,9.01
2019-04-06T03:58:38.795Z,8.98
2019-04-06T03:59:38.745Z,8.98
2019-04-06T04:00:38.693Z,8.96
2019-04-06T04:01:38.695Z,8.99
2019-04-06T04:02:38.641Z,8.98
2019-04-06T04:03:38.570Z,8.96
2019-04-06T04:04:38.543Z,8.91
2019-04-06T04:05:38.485Z,9.05
2019-04-06T04:06:38.438Z,8.96
2019-04-06T04:07:38.418Z,8.94
2019-04-06T04:08:38.368Z,8.87
2019-04-06T04:09:38.323Z,8.94
2019-04-06T04:10:38.322Z,8.94
2019-04-06T04:11:38.250Z,8.92
2019-04-06T04:12:38.183Z,8.77
2019-04-06T04:13:38.161Z,8.89
2019-04-06T04:14:38.373Z,8.87
2019-04-06T04:15:38.059Z,8.83
2019-04-06T04:16:38.041Z,8.83
2019-04-06T04:17:38.080Z,8.81
2019-04-06T04:18:37.957Z,8.80
2019-04-06T04:19:37.892Z,8.83
2019-04-06T04:20:37.861Z,8.84
2019-04-06T04:21:37.848Z,8.74
2019-04-06T04:22:37.768Z,8.83
2019-04-06T04:23:37.724Z,8.83
2019-04-06T04:24:37.674Z,8.83
2019-04-06T04:25:37.755Z,8.68
2019-04-06T04:26:37.642Z,8.71
2019-04-06T04:27:37.575Z,8.74
2019-04-06T04:28:37.511Z,8.81
2019-04-06T04:29:37.471Z,8.74
2019-04-06T04:30:37.424Z,8.74
2019-04-06T04:31:37.380Z,8.74
2019-04-06T04:32:37.357Z,8.74
2019-04-06T04:33:37.296Z,8.74
2019-04-06T04:34:37.247Z,8.89
2019-04-06T04:35:37.210Z,8.80
2019-04-06T04:36:37.261Z,8.84
2019-04-06T04:37:37.438Z,8.89
2019-04-06T04:38:37.081Z,8.86
2019-04-06T04:39:37.040Z,8.89
2019-04-06T04:40:36.997Z,8.89
2019-04-06T04:41:39.565Z,8.94
2019-04-06T04:42:36.918Z,8.99
2019-04-06T04:43:36.898Z,8.95
2019-04-06T04:44:36.849Z,8.89
2019-04-06T04:45:36.783Z,9.05
2019-04-06T04:46:36.739Z,9.01
2019-04-06T04:47:36.717Z,8.98
2019-04-06T04:48:36.663Z,9.13
2019-04-06T04:49:36.644Z,9.08
2019-04-06T04:50:36.709Z,9.01
2019-04-06T04:51:36.532Z,9.01
2019-04-06T04:52:36.527Z,9.13
2019-04-06T04:53:36.441Z,9.10
2019-04-06T04:54:36.428Z,9.10
2019-04-06T04:55:36.363Z,9.08
2019-04-06T04:56:36.331Z,9.02
2019-04-06T04:57:41.172Z,8.98
2019-04-06T04:58:36.229Z,8.96
2019-04-06T04:59:36.396Z,8.96
2019-04-06T05:00:36.160Z,9.02
2019-04-06T05:01:36.110Z,8.98
2019-04-06T05:02:36.088Z,9.02
2019-04-06T05:03:36.020Z,8.99
2019-04-06T05:04:35.998Z,8.98
2019-04-06T05:05:36.017Z,9.01
2019-04-06T05:06:35.892Z,8.98
2019-04-06T05:07:35.843Z,9.02
2019-04-06T05:08:35.809Z,8.87
2019-04-06T05:09:35.775Z,8.95
2019-04-06T05:10:35.739Z,8.91
2019-04-06T05:11:35.680Z,8.91
2019-04-06T05:12:35.751Z,8.91
2019-04-06T05:13:35.601Z,8.96
2019-04-06T05:14:35.681Z,9.02
2019-04-06T05:15:35.539Z,9.05
2019-04-06T05:16:35.463Z,8.99
2019-04-06T05:17:35.421Z,8.98
2019-04-06T05:18:35.390Z,9.01
2019-04-06T05:19:35.342Z,8.98
2019-04-06T05:20:35.293Z,9.08
2019-04-06T05:21:35.273Z,9.10
2019-04-06T05:22:35.209Z,9.05
2019-04-06T05:23:35.164Z,8.98
2019-04-06T05:24:35.205Z,9.15
2019-04-06T05:25:35.185Z,9.08
2019-04-06T05:26:37.794Z,9.14
2019-04-06T05:27:35.002Z,9.11
2019-04-06T05:28:34.960Z,9.08
2019-04-06T05:29:34.919Z,9.18
2019-04-06T05:30:34.875Z,9.20
2019-04-06T05:31:34.998Z,9.23
2019-04-06T05:32:34.810Z,9.13
2019-04-06T05:33:34.814Z,9.21
2019-04-06T05:34:34.707Z,9.23
2019-04-06T05:35:34.666Z,9.21
2019-04-06T05:36:34.621Z,9.28
2019-04-06T05:37:34.696Z,9.31
2019-04-06T05:38:34.536Z,9.31
2019-04-06T05:39:34.494Z,9.26
2019-04-06T05:40:34.446Z,9.23
2019-04-06T05:41:34.403Z,9.24
2019-04-06T05:42:34.470Z,9.23
2019-04-06T05:43:34.326Z,9.32
2019-04-06T05:44:34.276Z,9.36
2019-04-06T05:45:34.233Z,9.36
2019-04-06T05:46:34.203Z,9.38
2019-04-06T05:47:34.217Z,9.43
2019-04-06T05:48:34.135Z,9.40
2019-04-06T05:49:34.174Z,9.46
2019-04-06T05:50:34.130Z,9.48
2019-04-06T05:51:34.079Z,9.51
2019-04-06T05:52:33.940Z,9.50
2019-04-06T05:53:33.920Z,9.60
2019-04-06T05:54:33.859Z,9.66
2019-04-06T05:55:33.815Z,9.60
2019-04-06T05:56:33.806Z,9.58
2019-04-06T05:57:33.758Z,9.66
2019-04-06T05:58:33.710Z,9.61
2019-04-06T05:59:33.645Z,9.66
2019-04-06T06:00:33.606Z,9.68
2019-04-06T06:01:33.569Z,9.72
2019-04-06T06:02:33.554Z,9.74
2019-04-06T06:03:33.482Z,9.81
2019-04-06T06:04:33.436Z,9.81
2019-04-06T06:05:33.392Z,9.79
2019-04-06T06:06:33.357Z,9.79
2019-04-06T06:07:33.308Z,9.93
2019-04-06T06:08:33.302Z,9.84
2019-04-06T06:09:33.233Z,9.86
2019-04-06T06:10:33.188Z,9.96
2019-04-06T06:11:33.151Z,9.97
2019-04-06T06:12:33.105Z,9.97
2019-04-06T06:13:33.064Z,9.86
2019-04-06T06:14:33.058Z,9.96
2019-04-06T06:15:32.979Z,10.01
2019-04-06T06:16:32.936Z,10.05
2019-04-06T06:17:32.888Z,10.09
2019-04-06T06:18:32.849Z,10.09
2019-04-06T06:19:32.886Z,10.08
2019-04-06T06:20:32.772Z,10.12
2019-04-06T06:21:32.736Z,10.15
2019-04-06T06:22:32.686Z,10.15
2019-04-06T06:23:32.675Z,10.25
2019-04-06T06:24:34.627Z,10.26
2019-04-06T06:25:32.667Z,10.34
2019-04-06T06:26:32.515Z,10.38
2019-04-06T06:27:32.633Z,10.60
2019-04-06T06:28:32.441Z,10.81
2019-04-06T06:29:32.401Z,10.84
2019-04-06T06:30:32.372Z,10.88
2019-04-06T06:31:32.308Z,10.92
2019-04-06T06:32:32.272Z,11.11
2019-04-06T06:33:32.232Z,11.14
2019-04-06T06:34:32.190Z,11.17
2019-04-06T06:35:32.174Z,11.09
2019-04-06T06:36:32.101Z,11.09
2019-04-06T06:37:32.069Z,11.11
2019-04-06T06:38:32.022Z,11.27
2019-04-06T06:39:31.977Z,11.32
2019-04-06T06:40:31.943Z,11.18
2019-04-06T06:41:31.926Z,11.22
2019-04-06T06:42:31.860Z,11.25
2019-04-06T06:43:31.823Z,11.32
2019-04-06T06:44:31.814Z,11.42
2019-04-06T06:45:31.827Z,11.46
2019-04-06T06:46:31.722Z,11.47
2019-04-06T06:47:31.671Z,11.49
2019-04-06T06:48:31.613Z,11.49
2019-04-06T06:49:31.599Z,11.55
2019-04-06T06:50:31.623Z,11.46
2019-04-06T06:51:31.661Z,11.58
2019-04-06T06:52:31.462Z,11.57
2019-04-06T06:53:31.470Z,11.60
2019-04-06T06:54:31.409Z,11.58
2019-04-06T06:55:31.421Z,11.73
2019-04-06T06:56:31.387Z,11.79
2019-04-06T06:57:31.253Z,11.90
2019-04-06T06:58:31.284Z,11.96
2019-04-06T06:59:31.173Z,11.99
2019-04-06T07:00:31.299Z,11.96
2019-04-06T07:01:31.261Z,11.78
2019-04-06T07:02:31.076Z,11.72
2019-04-06T07:03:31.036Z,11.78
2019-04-06T07:04:31.138Z,11.83
2019-04-06T07:05:30.934Z,12.02
2019-04-06T07:06:30.929Z,11.99
2019-04-06T07:07:30.909Z,12.13
2019-04-06T07:08:30.804Z,12.32
2019-04-06T07:09:30.912Z,12.42
2019-04-06T07:10:30.826Z,12.46
2019-04-06T07:11:30.798Z,12.41
2019-04-06T07:12:30.686Z,12.52
2019-04-06T07:13:30.611Z,12.42
2019-04-06T07:14:30.599Z,12.29
2019-04-06T07:15:30.650Z,12.29
2019-04-06T07:16:30.491Z,12.20
2019-04-06T07:17:30.489Z,12.31
2019-04-06T07:18:30.599Z,12.17
2019-04-06T07:19:30.433Z,11.91
2019-04-06T07:20:30.414Z,11.86
2019-04-06T07:21:30.323Z,11.73
2019-04-06T07:22:30.295Z,11.79
2019-04-06T07:23:30.235Z,11.90
2019-04-06T07:24:30.184Z,11.88
2019-04-06T07:25:30.201Z,11.98
2019-04-06T07:26:30.204Z,12.04
2019-04-06T07:27:30.107Z,12.14
2019-04-06T07:28:37.529Z,12.19
2019-04-06T07:29:30.010Z,12.28
2019-04-06T07:30:30.246Z,12.16
2019-04-06T07:31:29.919Z,12.09
2019-04-06T07:32:29.866Z,12.04
2019-04-06T07:33:30.064Z,12.02
2019-04-06T07:34:29.788Z,12.04
2019-04-06T07:35:29.730Z,12.07
2019-04-06T07:36:29.790Z,11.99
2019-04-06T07:37:29.663Z,12.13
2019-04-06T07:38:29.629Z,12.17
2019-04-06T07:39:29.586Z,12.24
2019-04-06T07:40:29.810Z,12.24
2019-04-06T07:41:29.485Z,12.31
2019-04-06T07:42:29.459Z,12.34
2019-04-06T07:43:29.434Z,12.56
2019-04-06T07:44:29.370Z,12.68
2019-04-06T07:45:29.350Z,12.52
2019-04-06T07:46:29.508Z,12.75
2019-04-06T07:47:29.257Z,12.83
2019-04-06T07:48:29.208Z,13.03
2019-04-06T07:49:29.207Z,13.05
2019-04-06T07:50:29.151Z,12.96
2019-04-06T07:51:29.226Z,12.96
2019-04-06T07:52:29.046Z,12.72
2019-04-06T07:53:28.999Z,12.56
2019-04-06T07:54:29.020Z,12.64
2019-04-06T07:55:28.929Z,12.75
2019-04-06T07:56:28.986Z,12.97
2019-04-06T07:57:28.852Z,12.89
2019-04-06T07:58:28.827Z,13.00
2019-04-06T07:59:28.772Z,12.95
2019-04-06T08:00:28.727Z,12.93
2019-04-06T08:01:28.714Z,12.89
2019-04-06T08:02:28.683Z,12.93
2019-04-06T08:03:28.614Z,12.86
2019-04-06T08:04:28.614Z,12.89
2019-04-06T08:05:28.763Z,12.90
2019-04-06T08:06:28.525Z,12.62
2019-04-06T08:07:28.500Z,12.70
2019-04-06T08:08:28.970Z,12.83
2019-04-06T08:09:28.481Z,12.95
2019-04-06T08:10:28.322Z,13.03
2019-04-06T08:11:28.283Z,12.87
2019-04-06T08:12:28.290Z,12.95
2019-04-06T08:13:28.251Z,12.87
2019-04-06T08:14:28.181Z,12.75
2019-04-06T08:15:28.309Z,12.72
2019-04-06T08:16:28.386Z,12.78
2019-04-06T08:17:28.074Z,12.86
2019-04-06T08:18:28.083Z,13.00
2019-04-06T08:19:28.013Z,13.05
2019-04-06T08:20:27.951Z,13.08
2019-04-06T08:21:28.171Z,13.05
2019-04-06T08:22:27.897Z,13.04
2019-04-06T08:23:27.917Z,13.04
2019-04-06T08:24:28.275Z,12.89
2019-04-06T08:25:27.764Z,12.79
2019-04-06T08:26:27.695Z,12.77
2019-04-06T08:27:27.651Z,12.78
2019-04-06T08:28:27.624Z,12.67
2019-04-06T08:29:27.584Z,12.77
2019-04-06T08:30:27.566Z,12.82
2019-04-06T08:31:27.527Z,12.97
2019-04-06T08:32:27.510Z,13.01
2019-04-06T08:33:27.490Z,13.05
2019-04-06T08:34:27.389Z,13.23
2019-04-06T08:35:27.442Z,13.41
2019-04-06T08:36:27.313Z,13.45
2019-04-06T08:37:27.288Z,13.48
2019-04-06T08:38:27.252Z,13.49
2019-04-06T08:39:27.234Z,13.66
2019-04-06T08:40:27.187Z,13.67
2019-04-06T08:41:27.114Z,13.77
2019-04-06T08:42:27.090Z,13.78
2019-04-06T08:43:27.063Z,13.73
2019-04-06T08:44:27.003Z,13.54
2019-04-06T08:45:27.051Z,13.38
2019-04-06T08:46:26.994Z,13.39
2019-04-06T08:47:26.893Z,13.42
2019-04-06T08:48:27.047Z,13.51
2019-04-06T08:49:26.812Z,13.45
2019-04-06T08:50:26.924Z,13.36
2019-04-06T08:51:26.735Z,13.52
2019-04-06T08:52:26.825Z,13.52
2019-04-06T08:53:26.657Z,13.54
2019-04-06T08:54:26.643Z,13.59
2019-04-06T08:55:26.602Z,13.51
2019-04-06T08:56:26.545Z,13.32
2019-04-06T08:57:26.541Z,13.25
2019-04-06T08:58:26.542Z,13.30
2019-04-06T08:59:26.665Z,13.28
2019-04-06T09:00:26.451Z,13.15
2019-04-06T09:01:26.351Z,13.33
2019-04-06T09:02:28.439Z,13.26
2019-04-06T09:03:26.319Z,13.36
2019-04-06T09:04:26.226Z,13.51
2019-04-06T09:05:26.322Z,13.57
2019-04-06T09:06:26.300Z,13.69
2019-04-06T09:07:26.254Z,13.81
2019-04-06T09:08:26.081Z,13.89
2019-04-06T09:09:26.039Z,14.06
2019-04-06T09:10:25.992Z,13.97
2019-04-06T09:11:25.971Z,14.12
2019-04-06T09:12:25.913Z,14.24
2019-04-06T09:13:25.946Z,14.29
2019-04-06T09:14:25.877Z,14.39
2019-04-06T09:15:25.800Z,14.62
2019-04-06T09:16:25.875Z,14.72
2019-04-06T09:17:25.724Z,14.83
2019-04-06T09:18:28.351Z,14.55
2019-04-06T09:19:25.699Z,14.33
2019-04-06T09:20:25.695Z,14.17
2019-04-06T09:21:25.589Z,14.03
2019-04-06T09:22:25.553Z,13.91
2019-04-06T09:23:25.546Z,14.02
2019-04-06T09:24:25.510Z,14.02
2019-04-06T09:25:25.419Z,14.06
2019-04-06T09:26:25.414Z,14.04
2019-04-06T09:27:25.451Z,14.06
2019-04-06T09:28:25.392Z,14.15
2019-04-06T09:29:25.334Z,14.02
2019-04-06T09:30:25.259Z,14.06
2019-04-06T09:31:25.250Z,13.84
2019-04-06T09:32:25.151Z,13.64
2019-04-06T09:33:25.281Z,13.67
2019-04-06T09:34:25.099Z,13.84
2019-04-06T09:35:25.072Z,14.03
2019-04-06T09:36:25.031Z,14.07
2019-04-06T09:37:25.100Z,14.10
2019-04-06T09:38:24.923Z,14.17
2019-04-06T09:39:24.906Z,14.39
2019-04-06T09:40:24.871Z,14.46
2019-04-06T09:41:26.073Z,14.42
2019-04-06T09:42:24.786Z,14.18
2019-04-06T09:43:24.722Z,14.03
2019-04-06T09:44:25.087Z,14.10
2019-04-06T09:45:24.677Z,14.10
2019-04-06T09:46:25.024Z,14.12
2019-04-06T09:47:24.576Z,14.20
2019-04-06T09:48:24.535Z,14.00
2019-04-06T09:49:24.769Z,14.18
2019-04-06T09:50:24.466Z,14.35
2019-04-06T09:51:24.436Z,14.36
2019-04-06T09:52:24.506Z,14.39
2019-04-06T09:53:24.417Z,14.22
2019-04-06T09:54:24.440Z,14.17
2019-04-06T09:55:24.296Z,14.36
2019-04-06T09:56:24.303Z,14.43
2019-04-06T09:57:24.333Z,14.39
2019-04-06T09:58:24.402Z,14.39
2019-04-06T09:59:34.762Z,14.69
2019-04-06T10:00:24.377Z,14.68
2019-04-06T10:01:24.053Z,14.86
2019-04-06T10:02:24.126Z,14.72
2019-04-06T10:03:24.249Z,14.73
2019-04-06T10:04:24.151Z,14.72
2019-04-06T10:05:24.243Z,14.70
2019-04-06T10:06:23.970Z,14.83
2019-04-06T10:07:23.901Z,14.65
2019-04-06T10:08:23.807Z,14.40
2019-04-06T10:09:23.829Z,14.40
2019-04-06T10:10:23.930Z,14.37
2019-04-06T10:11:23.688Z,14.52
2019-04-06T10:12:23.684Z,14.57
2019-04-06T10:13:23.660Z,14.55
2019-04-06T10:14:23.563Z,14.62
2019-04-06T10:15:23.598Z,14.62
2019-04-06T10:16:23.481Z,14.55
2019-04-06T10:17:23.694Z,14.55
2019-04-06T10:18:23.434Z,14.52
2019-04-06T10:19:23.400Z,14.61
2019-04-06T10:20:23.354Z,14.57
2019-04-06T10:21:23.287Z,14.46
2019-04-06T10:22:23.284Z,14.61
2019-04-06T10:23:23.219Z,14.64
2019-04-06T10:24:23.180Z,14.65
2019-04-06T10:25:23.332Z,14.50
2019-04-06T10:26:23.098Z,14.42
2019-04-06T10:27:23.077Z,14.32
2019-04-06T10:28:23.394Z,14.35
2019-04-06T10:29:22.979Z,14.35
2019-04-06T10:30:23.156Z,14.27
2019-04-06T10:31:22.946Z,14.17
2019-04-06T10:32:22.874Z,14.43
2019-04-06T10:33:22.943Z,14.57
2019-04-06T10:34:22.907Z,14.96
2019-04-06T10:35:22.964Z,15.21
2019-04-06T10:36:22.797Z,15.49
2019-04-06T10:37:22.670Z,15.56
2019-04-06T10:38:22.656Z,15.62
2019-04-06T10:39:23.015Z,15.76
2019-04-06T10:40:22.565Z,15.53
2019-04-06T10:41:22.663Z,15.64
2019-04-06T10:42:22.471Z,15.92
2019-04-06T10:43:22.456Z,16.14
2019-04-06T10:44:22.544Z,15.92
2019-04-06T10:45:22.436Z,15.87
2019-04-06T10:46:22.363Z,15.76
2019-04-06T10:47:22.330Z,15.87
2019-04-06T10:48:22.512Z,16.02
2019-04-06T10:49:22.228Z,15.64
2019-04-06T10:50:22.186Z,15.64
2019-04-06T10:51:22.196Z,15.62
2019-04-06T10:52:22.112Z,15.23
2019-04-06T10:53:22.074Z,15.47
2019-04-06T10:54:22.030Z,15.71
2019-04-06T10:55:21.993Z,15.64
2019-04-06T10:56:22.085Z,15.72
2019-04-06T10:57:21.969Z,15.83
2019-04-06T10:58:22.178Z,16.01
2019-04-06T10:59:21.883Z,16.23
2019-04-06T11:00:22.035Z,16.30
2019-04-06T11:01:21.777Z,16.11
2019-04-06T11:02:21.748Z,15.92
2019-04-06T11:03:21.800Z,15.76
2019-04-06T11:04:21.871Z,15.62
2019-04-06T11:05:21.720Z,15.72
2019-04-06T11:06:21.655Z,16.02
2019-04-06T11:07:21.557Z,16.11
2019-04-06T11:08:22.144Z,16.21
2019-04-06T11:09:21.487Z,16.35
2019-04-06T11:10:21.474Z,16.27
2019-04-06T11:11:21.452Z,16.30
2019-04-06T11:12:21.403Z,16.63
2019-04-06T11:13:21.668Z,16.89
2019-04-06T11:14:21.332Z,17.04
2019-04-06T11:15:21.316Z,17.16
2019-04-06T11:16:21.256Z,16.71
2019-04-06T11:17:21.195Z,16.46
2019-04-06T11:18:21.570Z,16.48
2019-04-06T11:19:21.117Z,16.41
2019-04-06T11:20:21.109Z,16.81
2019-04-06T11:21:21.368Z,16.86
2019-04-06T11:22:21.024Z,16.89
2019-04-06T11:23:20.981Z,16.60
2019-04-06T11:24:20.938Z,16.85
2019-04-06T11:25:20.921Z,16.94
2019-04-06T11:26:21.134Z,17.07
2019-04-06T11:27:20.830Z,17.15
2019-04-06T11:28:21.402Z,17.30
2019-04-06T11:29:20.836Z,17.54
2019-04-06T11:30:20.774Z,17.49
2019-04-06T11:31:20.699Z,17.15
2019-04-06T11:32:20.667Z,17.06
2019-04-06T11:33:20.660Z,17.06
2019-04-06T11:34:22.161Z,17.00
2019-04-06T11:35:20.801Z,16.89
2019-04-06T11:36:20.702Z,16.85
2019-04-06T11:37:20.715Z,17.11
2019-04-06T11:38:20.547Z,17.16
2019-04-06T11:39:20.431Z,17.43
2019-04-06T11:40:20.414Z,17.79
2019-04-06T11:41:20.445Z,17.63
2019-04-06T11:42:20.956Z,17.25
2019-04-06T11:43:33.548Z,17.41
2019-04-06T11:44:20.271Z,17.54
2019-04-06T11:45:20.214Z,17.71
2019-04-06T11:46:20.194Z,17.58
2019-04-06T11:47:20.450Z,17.86
2019-04-06T11:48:20.238Z,17.96
2019-04-06T11:49:20.110Z,17.77
2019-04-06T11:50:20.049Z,17.95
2019-04-06T11:51:20.030Z,18.08
2019-04-06T11:52:19.971Z,18.12
2019-04-06T11:53:19.973Z,17.97
2019-04-06T11:54:19.905Z,17.77
2019-04-06T11:55:19.871Z,17.75
2019-04-06T11:56:19.864Z,17.63
2019-04-06T11:57:19.812Z,17.66
2019-04-06T11:58:19.857Z,17.55
2019-04-06T11:59:19.731Z,17.52
2019-04-06T12:00:26.551Z,17.54
2019-04-06T12:01:19.690Z,17.31
2019-04-06T12:02:19.662Z,17.15
2019-04-06T12:03:19.623Z,16.88
2019-04-06T12:04:19.592Z,16.81
2019-04-06T12:05:19.554Z,16.94
2019-04-06T12:06:19.503Z,17.07
2019-04-06T12:07:19.456Z,17.00
2019-04-06T12:08:19.579Z,17.15
2019-04-06T12:09:19.405Z,17.22
2019-04-06T12:10:19.457Z,17.52
2019-04-06T12:11:19.780Z,17.68
2019-04-06T12:12:19.307Z,17.93
2019-04-06T12:13:19.241Z,18.11
2019-04-06T12:14:19.221Z,18.21
2019-04-06T12:15:19.292Z,18.36
2019-04-06T12:16:19.136Z,18.20
2019-04-06T12:17:19.113Z,17.81
2019-04-06T12:18:19.342Z,17.77
2019-04-06T12:19:19.145Z,17.81
2019-04-06T12:20:18.995Z,17.70
2019-04-06T12:21:18.963Z,17.82
2019-04-06T12:22:18.926Z,18.08
2019-04-06T12:23:18.929Z,18.35
2019-04-06T12:24:19.164Z,18.44
2019-04-06T12:25:19.123Z,18.37
2019-04-06T12:26:18.799Z,18.27
2019-04-06T12:27:18.748Z,18.03
2019-04-06T12:28:21.390Z,17.93
2019-04-06T12:29:18.681Z,17.68
2019-04-06T12:30:18.671Z,17.72
2019-04-06T12:31:18.642Z,17.40
2019-04-06T12:32:18.607Z,17.52
2019-04-06T12:33:18.639Z,17.49
2019-04-06T12:34:18.504Z,17.28
2019-04-06T12:35:18.830Z,17.41
2019-04-06T12:36:18.437Z,17.30
2019-04-06T12:37:18.413Z,17.18
2019-04-06T12:38:18.538Z,17.31
2019-04-06T12:39:18.378Z,17.19
2019-04-06T12:40:18.601Z,17.54
2019-04-06T12:41:18.316Z,17.64
2019-04-06T12:42:18.246Z,17.74
2019-04-06T12:43:18.193Z,17.82
2019-04-06T12:44:18.200Z,17.97
2019-04-06T12:45:18.257Z,17.72
2019-04-06T12:46:18.101Z,17.59
2019-04-06T12:47:18.114Z,17.81
2019-04-06T12:48:18.482Z,17.84
2019-04-06T12:49:18.011Z,17.86
2019-04-06T12:50:18.360Z,17.87
2019-04-06T12:51:18.848Z,17.87
2019-04-06T12:52:18.248Z,17.68
2019-04-06T12:53:18.024Z,17.66
2019-04-06T12:54:18.731Z,17.41
2019-04-06T12:55:17.782Z,17.72
2019-04-06T12:56:17.752Z,17.72
2019-04-06T12:57:17.784Z,17.92
2019-04-06T12:58:17.805Z,17.96
2019-04-06T12:59:17.688Z,17.96
2019-04-06T13:00:17.656Z,18.03
2019-04-06T13:01:17.697Z,17.92
2019-04-06T13:02:17.546Z,17.92
2019-04-06T13:03:17.577Z,17.89
2019-04-06T13:04:17.488Z,17.82